sensor_id;sensor_type;location;lat;lon;timestamp;pressure;altitude;pressure_sealevel;temperature;humidity
8627;BME280;4351;51.422;6.794;2022-09-04T00:02:19;100992.41;;;18.14;100.00
8627;BME280;4351;51.422;6.794;2022-09-04T00:04:59;100987.50;;;18.08;100.00
8627;BME280;4351;51.422;6.794;2022-09-04T00:07:36;100988.50;;;18.07;100.00
8627;BME280;4351;51.422;6.794;2022-09-04T00:10:11;100992.38;;;18.04;100.00
8627;BME280;4351;51.422;6.794;2022-09-04T00:12:45;100989.19;;;17.99;100.00
8627;BME280;4351;51.422;6.794;2022-09-04T00:15:18;100996.63;;;17.97;100.00
8627;BME280;4351;51.422;6.794;2022-09-04T00:17:54;100991.47;;;17.94;100.00
8627;BME280;4351;51.422;6.794;2022-09-04T00:20:41;100996.94;;;17.94;100.00
8627;BME280;4351;51.422;6.794;2022-09-04T00:23:17;101000.31;;;17.86;100.00
8627;BME280;4351;51.422;6.794;2022-09-04T00:25:53;100999.19;;;17.89;100.00
8627;BME280;4351;51.422;6.794;2022-09-04T00:28:31;101006.19;;;17.81;100.00
8627;BME280;4351;51.422;6.794;2022-09-04T00:31:12;101006.91;;;17.84;100.00
8627;BME280;4351;51.422;6.794;2022-09-04T00:33:52;101003.72;;;17.78;100.00
8627;BME280;4351;51.422;6.794;2022-09-04T00:36:26;101004.47;;;17.80;100.00
8627;BME280;4351;51.422;6.794;2022-09-04T00:38:57;101015.38;;;17.80;100.00
8627;BME280;4351;51.422;6.794;2022-09-04T00:41:28;101020.34;;;17.75;100.00
8627;BME280;4351;51.422;6.794;2022-09-04T00:44:16;101025.81;;;17.75;100.00
8627;BME280;4351;51.422;6.794;2022-09-04T00:47:04;101022.09;;;17.76;100.00
8627;BME280;4351;51.422;6.794;2022-09-04T00:49:58;101027.81;;;17.73;100.00
8627;BME280;4351;51.422;6.794;2022-09-04T00:53:01;101022.66;;;17.70;100.00
8627;BME280;4351;51.422;6.794;2022-09-04T00:55:56;101022.91;;;17.67;100.00
8627;BME280;4351;51.422;6.794;2022-09-04T00:58:49;101029.38;;;17.66;100.00
8627;BME280;4351;51.422;6.794;2022-09-04T01:01:24;101017.97;;;17.61;100.00
8627;BME280;4351;51.422;6.794;2022-09-04T01:04:17;101028.88;;;17.61;100.00
8627;BME280;4351;51.422;6.794;2022-09-04T01:07:00;101025.47;;;17.47;100.00
8627;BME280;4351;51.422;6.794;2022-09-04T01:09:45;101016.31;;;17.48;100.00
8627;BME280;4351;51.422;6.794;2022-09-04T01:12:30;101022.03;;;17.45;100.00
8627;BME280;4351;51.422;6.794;2022-09-04T01:15:05;101020.69;;;17.39;100.00
8627;BME280;4351;51.422;6.794;2022-09-04T01:17:46;101012.53;;;17.39;100.00
8627;BME280;4351;51.422;6.794;2022-09-04T01:20:23;101017.34;;;17.35;100.00
8627;BME280;4351;51.422;6.794;2022-09-04T01:23:15;101020.81;;;17.38;100.00
8627;BME280;4351;51.422;6.794;2022-09-04T01:25:59;101021.97;;;17.35;100.00
8627;BME280;4351;51.422;6.794;2022-09-04T01:28:35;101021.34;;;17.31;100.00
8627;BME280;4351;51.422;6.794;2022-09-04T01:31:19;101026.06;;;17.29;100.00
8627;BME280;4351;51.422;6.794;2022-09-04T01:33:59;101026.78;;;17.31;100.00
8627;BME280;4351;51.422;6.794;2022-09-04T01:36:35;101034.13;;;17.31;100.00
8627;BME280;4351;51.422;6.794;2022-09-04T01:39:04;101030.13;;;17.35;100.00
8627;BME280;4351;51.422;6.794;2022-09-04T01:41:41;101029.50;;;17.31;100.00
8627;BME280;4351;51.422;6.794;2022-09-04T01:44:14;101036.50;;;17.24;100.00
8627;BME280;4351;51.422;6.794;2022-09-04T01:46:53;101038.22;;;17.25;100.00
8627;BME280;4351;51.422;6.794;2022-09-04T01:49:31;101038.75;;;17.19;100.00
8627;BME280;4351;51.422;6.794;2022-09-04T01:52:29;101038.16;;;17.15;100.00
8627;BME280;4351;51.422;6.794;2022-09-04T01:55:10;101039.38;;;17.11;100.00
8627;BME280;4351;51.422;6.794;2022-09-04T01:57:47;101042.19;;;17.09;100.00
8627;BME280;4351;51.422;6.794;2022-09-04T02:00:21;101042.25;;;16.98;100.00
8627;BME280;4351;51.422;6.794;2022-09-04T02:02:55;101040.88;;;17.04;100.00
8627;BME280;4351;51.422;6.794;2022-09-04T02:05:39;101044.34;;;17.06;100.00
8627;BME280;4351;51.422;6.794;2022-09-04T02:08:34;101047.44;;;17.01;100.00
8627;BME280;4351;51.422;6.794;2022-09-04T02:11:08;101052.44;;;16.96;100.00
8627;BME280;4351;51.422;6.794;2022-09-04T02:13:54;101056.50;;;17.01;100.00
8627;BME280;4351;51.422;6.794;2022-09-04T02:16:36;101056.63;;;17.00;100.00
8627;BME280;4351;51.422;6.794;2022-09-04T02:19:22;101063.66;;;17.03;100.00
8627;BME280;4351;51.422;6.794;2022-09-04T02:21:59;101061.34;;;16.98;100.00
8627;BME280;4351;51.422;6.794;2022-09-04T02:24:33;101070.50;;;16.97;100.00
8627;BME280;4351;51.422;6.794;2022-09-04T02:27:07;101067.38;;;17.01;100.00
8627;BME280;4351;51.422;6.794;2022-09-04T02:29:43;101072.34;;;16.96;100.00
8627;BME280;4351;51.422;6.794;2022-09-04T02:32:18;101071.00;;;16.91;100.00
8627;BME280;4351;51.422;6.794;2022-09-04T02:34:56;101069.50;;;16.98;100.00
8627;BME280;4351;51.422;6.794;2022-09-04T02:37:32;101079.25;;;17.00;100.00
8627;BME280;4351;51.422;6.794;2022-09-04T02:40:09;101080.66;;;16.95;100.00
8627;BME280;4351;51.422;6.794;2022-09-04T02:42:49;101093.41;;;16.94;100.00
8627;BME280;4351;51.422;6.794;2022-09-04T02:45:32;101080.06;;;16.91;100.00
8627;BME280;4351;51.422;6.794;2022-09-04T02:48:07;101083.63;;;16.92;100.00
8627;BME280;4351;51.422;6.794;2022-09-04T02:50:51;101083.97;;;16.98;100.00
8627;BME280;4351;51.422;6.794;2022-09-04T02:53:28;101083.25;;;16.96;100.00
8627;BME280;4351;51.422;6.794;2022-09-04T02:56:12;101085.97;;;16.96;100.00
8627;BME280;4351;51.422;6.794;2022-09-04T02:58:55;101088.22;;;16.91;100.00
8627;BME280;4351;51.422;6.794;2022-09-04T03:01:36;101101.72;;;16.93;100.00
8627;BME280;4351;51.422;6.794;2022-09-04T03:04:19;101096.88;;;16.96;100.00
8627;BME280;4351;51.422;6.794;2022-09-04T03:06:53;101100.22;;;16.88;100.00
8627;BME280;4351;51.422;6.794;2022-09-04T03:09:27;101100.38;;;16.87;100.00
8627;BME280;4351;51.422;6.794;2022-09-04T03:11:59;101105.91;;;16.97;100.00
8627;BME280;4351;51.422;6.794;2022-09-04T03:14:34;101097.13;;;16.93;100.00
8627;BME280;4351;51.422;6.794;2022-09-04T03:17:11;101103.94;;;16.87;100.00
8627;BME280;4351;51.422;6.794;2022-09-04T03:19:47;101106.94;;;16.84;100.00
8627;BME280;4351;51.422;6.794;2022-09-04T03:22:24;101105.69;;;16.88;100.00
8627;BME280;4351;51.422;6.794;2022-09-04T03:25:04;101101.34;;;16.86;100.00
8627;BME280;4351;51.422;6.794;2022-09-04T03:27:34;101108.41;;;16.88;100.00
8627;BME280;4351;51.422;6.794;2022-09-04T03:30:06;101103.94;;;16.87;100.00
8627;BME280;4351;51.422;6.794;2022-09-04T03:32:42;101109.28;;;16.89;100.00
8627;BME280;4351;51.422;6.794;2022-09-04T03:35:19;101105.56;;;16.90;100.00
8627;BME280;4351;51.422;6.794;2022-09-04T03:38:05;101109.38;;;16.87;100.00
8627;BME280;4351;51.422;6.794;2022-09-04T03:40:39;101115.09;;;16.84;100.00
8627;BME280;4351;51.422;6.794;2022-09-04T03:43:23;101112.38;;;16.84;100.00
8627;BME280;4351;51.422;6.794;2022-09-04T03:46:04;101110.41;;;16.75;100.00
8627;BME280;4351;51.422;6.794;2022-09-04T03:48:54;101123.78;;;16.78;100.00
8627;BME280;4351;51.422;6.794;2022-09-04T03:51:37;101126.75;;;16.75;100.00
8627;BME280;4351;51.422;6.794;2022-09-04T03:54:13;101129.69;;;16.72;100.00
8627;BME280;4351;51.422;6.794;2022-09-04T03:56:51;101125.03;;;16.74;100.00
8627;BME280;4351;51.422;6.794;2022-09-04T03:59:32;101130.84;;;16.69;100.00
8627;BME280;4351;51.422;6.794;2022-09-04T04:02:16;101136.38;;;16.67;100.00
8627;BME280;4351;51.422;6.794;2022-09-04T04:05:15;101142.56;;;16.70;100.00
8627;BME280;4351;51.422;6.794;2022-09-04T04:07:58;101144.69;;;16.66;100.00
8627;BME280;4351;51.422;6.794;2022-09-04T04:10:41;101156.69;;;16.63;100.00
8627;BME280;4351;51.422;6.794;2022-09-04T04:13:26;101162.38;;;16.49;100.00
8627;BME280;4351;51.422;6.794;2022-09-04T04:16:14;101167.94;;;16.59;100.00
8627;BME280;4351;51.422;6.794;2022-09-04T04:19:02;101166.09;;;16.59;100.00
8627;BME280;4351;51.422;6.794;2022-09-04T04:21:47;101168.44;;;16.52;100.00
8627;BME280;4351;51.422;6.794;2022-09-04T04:24:38;101170.06;;;16.55;100.00
8627;BME280;4351;51.422;6.794;2022-09-04T04:27:20;101185.53;;;16.54;100.00
8627;BME280;4351;51.422;6.794;2022-09-04T04:30:04;101189.63;;;16.60;100.00
8627;BME280;4351;51.422;6.794;2022-09-04T04:32:54;101206.22;;;16.57;100.00
8627;BME280;4351;51.422;6.794;2022-09-04T04:35:31;101207.31;;;16.54;100.00
8627;BME280;4351;51.422;6.794;2022-09-04T04:38:14;101227.25;;;16.55;100.00
8627;BME280;4351;51.422;6.794;2022-09-04T04:40:59;101195.56;;;16.54;100.00
8627;BME280;4351;51.422;6.794;2022-09-04T04:43:40;101205.09;;;16.60;100.00
8627;BME280;4351;51.422;6.794;2022-09-04T04:46:16;101222.69;;;16.67;100.00
8627;BME280;4351;51.422;6.794;2022-09-04T04:49:01;101225.03;;;16.72;100.00
8627;BME280;4351;51.422;6.794;2022-09-04T04:51:58;101236.41;;;16.65;100.00
8627;BME280;4351;51.422;6.794;2022-09-04T04:55:04;101240.38;;;16.61;100.00
8627;BME280;4351;51.422;6.794;2022-09-04T04:57:54;101244.34;;;16.57;100.00
8627;BME280;4351;51.422;6.794;2022-09-04T05:00:31;101236.03;;;16.59;100.00
8627;BME280;4351;51.422;6.794;2022-09-04T05:03:06;101247.94;;;16.58;100.00
8627;BME280;4351;51.422;6.794;2022-09-04T05:05:53;101256.22;;;16.67;100.00
8627;BME280;4351;51.422;6.794;2022-09-04T05:08:32;101257.97;;;16.69;100.00
8627;BME280;4351;51.422;6.794;2022-09-04T05:11:06;101259.44;;;16.61;100.00
8627;BME280;4351;51.422;6.794;2022-09-04T05:13:44;101263.66;;;16.65;100.00
8627;BME280;4351;51.422;6.794;2022-09-04T05:16:24;101270.84;;;16.66;100.00
8627;BME280;4351;51.422;6.794;2022-09-04T05:18:59;101274.94;;;16.72;100.00
8627;BME280;4351;51.422;6.794;2022-09-04T05:21:33;101279.16;;;16.76;100.00
8627;BME280;4351;51.422;6.794;2022-09-04T05:24:08;101270.38;;;16.73;100.00
8627;BME280;4351;51.422;6.794;2022-09-04T05:26:45;101274.31;;;16.69;100.00
8627;BME280;4351;51.422;6.794;2022-09-04T05:29:19;101282.50;;;16.69;100.00
8627;BME280;4351;51.422;6.794;2022-09-04T05:31:57;101280.13;;;16.64;100.00
8627;BME280;4351;51.422;6.794;2022-09-04T05:34:31;101292.47;;;16.57;100.00
8627;BME280;4351;51.422;6.794;2022-09-04T05:37:08;101302.00;;;16.51;100.00
8627;BME280;4351;51.422;6.794;2022-09-04T05:39:55;101309.94;;;16.54;100.00
8627;BME280;4351;51.422;6.794;2022-09-04T05:42:52;101312.78;;;16.52;100.00
8627;BME280;4351;51.422;6.794;2022-09-04T05:45:32;101331.28;;;16.72;100.00
8627;BME280;4351;51.422;6.794;2022-09-04T05:48:12;101342.28;;;16.70;100.00
8627;BME280;4351;51.422;6.794;2022-09-04T05:50:59;101338.34;;;16.74;100.00
8627;BME280;4351;51.422;6.794;2022-09-04T05:53:51;101343.94;;;16.84;100.00
8627;BME280;4351;51.422;6.794;2022-09-04T05:57:07;101338.50;;;16.84;100.00
8627;BME280;4351;51.422;6.794;2022-09-04T06:00:06;101345.19;;;16.92;100.00
8627;BME280;4351;51.422;6.794;2022-09-04T06:03:03;101350.53;;;17.05;100.00
8627;BME280;4351;51.422;6.794;2022-09-04T06:05:45;101350.72;;;17.15;100.00
8627;BME280;4351;51.422;6.794;2022-09-04T06:08:30;101354.19;;;17.17;100.00
8627;BME280;4351;51.422;6.794;2022-09-04T06:14:18;101317.91;;;17.28;100.00
8627;BME280;4351;51.422;6.794;2022-09-04T06:17:01;101321.25;;;17.31;100.00
8627;BME280;4351;51.422;6.794;2022-09-04T06:19:56;101314.53;;;17.35;100.00
8627;BME280;4351;51.422;6.794;2022-09-04T06:22:39;101313.34;;;17.40;100.00
8627;BME280;4351;51.422;6.794;2022-09-04T06:25:23;101302.78;;;17.35;100.00
8627;BME280;4351;51.422;6.794;2022-09-04T06:28:07;101303.41;;;17.50;100.00
8627;BME280;4351;51.422;6.794;2022-09-04T06:30:45;101297.22;;;17.48;100.00
8627;BME280;4351;51.422;6.794;2022-09-04T06:33:52;101291.47;;;17.63;100.00
8627;BME280;4351;51.422;6.794;2022-09-04T06:36:55;101293.59;;;17.59;100.00
8627;BME280;4351;51.422;6.794;2022-09-04T06:39:39;101292.56;;;17.72;100.00
8627;BME280;4351;51.422;6.794;2022-09-04T06:42:22;101296.19;;;17.72;100.00
8627;BME280;4351;51.422;6.794;2022-09-04T06:45:03;101299.38;;;17.77;100.00
8627;BME280;4351;51.422;6.794;2022-09-04T06:47:48;101294.16;;;17.86;100.00
8627;BME280;4351;51.422;6.794;2022-09-04T06:50:30;101297.72;;;17.98;100.00
8627;BME280;4351;51.422;6.794;2022-09-04T06:53:15;101297.59;;;17.99;100.00
8627;BME280;4351;51.422;6.794;2022-09-04T06:55:55;101300.81;;;18.04;100.00
8627;BME280;4351;51.422;6.794;2022-09-04T06:58:46;101302.41;;;18.07;100.00
8627;BME280;4351;51.422;6.794;2022-09-04T07:01:18;101297.94;;;18.18;100.00
8627;BME280;4351;51.422;6.794;2022-09-04T07:04:03;101287.50;;;18.23;100.00
8627;BME280;4351;51.422;6.794;2022-09-04T07:06:46;101305.91;;;18.42;100.00
8627;BME280;4351;51.422;6.794;2022-09-04T07:09:19;101309.91;;;18.38;100.00
8627;BME280;4351;51.422;6.794;2022-09-04T07:12:09;101308.84;;;18.50;100.00
8627;BME280;4351;51.422;6.794;2022-09-04T07:15:03;101308.97;;;18.49;100.00
8627;BME280;4351;51.422;6.794;2022-09-04T07:17:43;101315.78;;;18.55;100.00
8627;BME280;4351;51.422;6.794;2022-09-04T07:20:24;101317.38;;;18.57;100.00
8627;BME280;4351;51.422;6.794;2022-09-04T07:26:13;101321.38;;;18.75;100.00
8627;BME280;4351;51.422;6.794;2022-09-04T07:31:58;101333.56;;;18.92;100.00
8627;BME280;4351;51.422;6.794;2022-09-04T07:34:36;101329.84;;;18.93;100.00
8627;BME280;4351;51.422;6.794;2022-09-04T07:37:16;101328.69;;;18.95;100.00
8627;BME280;4351;51.422;6.794;2022-09-04T07:40:00;101339.44;;;19.09;100.00
8627;BME280;4351;51.422;6.794;2022-09-04T07:42:40;101344.09;;;19.18;100.00
8627;BME280;4351;51.422;6.794;2022-09-04T07:45:19;101352.31;;;19.18;100.00
8627;BME280;4351;51.422;6.794;2022-09-04T07:48:01;101345.25;;;19.15;100.00
8627;BME280;4351;51.422;6.794;2022-09-04T07:50:35;101347.72;;;19.18;100.00
8627;BME280;4351;51.422;6.794;2022-09-04T07:53:16;101363.50;;;19.36;100.00
8627;BME280;4351;51.422;6.794;2022-09-04T07:55:51;101369.56;;;19.40;100.00
8627;BME280;4351;51.422;6.794;2022-09-04T07:58:35;101374.94;;;19.51;100.00
8627;BME280;4351;51.422;6.794;2022-09-04T08:01:30;101379.09;;;19.46;100.00
8627;BME280;4351;51.422;6.794;2022-09-04T08:07:01;101386.88;;;19.50;100.00
8627;BME280;4351;51.422;6.794;2022-09-04T08:09:45;101386.94;;;19.60;100.00
8627;BME280;4351;51.422;6.794;2022-09-04T08:12:46;101383.22;;;19.71;100.00
8627;BME280;4351;51.422;6.794;2022-09-04T08:15:17;101379.63;;;20.12;100.00
8627;BME280;4351;51.422;6.794;2022-09-04T08:17:58;101380.78;;;20.09;100.00
8627;BME280;4351;51.422;6.794;2022-09-04T08:20:41;101386.84;;;20.13;100.00
8627;BME280;4351;51.422;6.794;2022-09-04T08:23:45;101391.44;;;20.13;100.00
8627;BME280;4351;51.422;6.794;2022-09-04T08:26:40;101394.97;;;20.44;100.00
8627;BME280;4351;51.422;6.794;2022-09-04T08:29:33;101393.50;;;20.30;100.00
8627;BME280;4351;51.422;6.794;2022-09-04T08:32:16;101393.78;;;20.27;100.00
8627;BME280;4351;51.422;6.794;2022-09-04T08:35:17;101396.81;;;20.24;100.00
8627;BME280;4351;51.422;6.794;2022-09-04T08:38:00;101397.69;;;20.35;100.00
8627;BME280;4351;51.422;6.794;2022-09-04T08:43:34;101404.06;;;20.55;100.00
8627;BME280;4351;51.422;6.794;2022-09-04T08:46:39;101402.47;;;20.42;100.00
8627;BME280;4351;51.422;6.794;2022-09-04T08:49:45;101409.41;;;20.66;100.00
8627;BME280;4351;51.422;6.794;2022-09-04T08:55:38;101406.34;;;20.50;100.00
8627;BME280;4351;51.422;6.794;2022-09-04T09:01:54;101416.91;;;20.74;100.00
8627;BME280;4351;51.422;6.794;2022-09-04T09:11:01;101420.94;;;21.10;100.00
8627;BME280;4351;51.422;6.794;2022-09-04T09:14:02;101425.28;;;21.12;100.00
8627;BME280;4351;51.422;6.794;2022-09-04T09:16:42;101420.47;;;21.24;100.00
8627;BME280;4351;51.422;6.794;2022-09-04T09:19:19;101421.22;;;21.17;100.00
8627;BME280;4351;51.422;6.794;2022-09-04T09:22:09;101425.31;;;21.51;100.00
8627;BME280;4351;51.422;6.794;2022-09-04T09:25:01;101424.72;;;21.57;100.00
8627;BME280;4351;51.422;6.794;2022-09-04T09:28:13;101418.72;;;21.43;100.00
8627;BME280;4351;51.422;6.794;2022-09-04T09:37:27;101418.84;;;21.80;100.00
8627;BME280;4351;51.422;6.794;2022-09-04T09:40:18;101416.28;;;21.68;100.00
8627;BME280;4351;51.422;6.794;2022-09-04T09:43:17;101419.88;;;22.07;100.00
8627;BME280;4351;51.422;6.794;2022-09-04T09:49:16;101415.53;;;22.14;100.00
8627;BME280;4351;51.422;6.794;2022-09-04T09:52:06;101412.59;;;21.98;100.00
8627;BME280;4351;51.422;6.794;2022-09-04T10:01:03;101410.03;;;22.14;100.00
8627;BME280;4351;51.422;6.794;2022-09-04T10:06:58;101410.16;;;22.59;100.00
8627;BME280;4351;51.422;6.794;2022-09-04T10:10:07;101413.78;;;22.78;100.00
8627;BME280;4351;51.422;6.794;2022-09-04T10:13:14;101409.06;;;22.52;100.00
8627;BME280;4351;51.422;6.794;2022-09-04T10:16:15;101404.44;;;22.71;100.00
8627;BME280;4351;51.422;6.794;2022-09-04T10:22:34;101406.66;;;22.67;100.00
8627;BME280;4351;51.422;6.794;2022-09-04T10:25:24;101414.59;;;22.70;100.00
8627;BME280;4351;51.422;6.794;2022-09-04T10:28:30;101419.75;;;22.92;100.00
8627;BME280;4351;51.422;6.794;2022-09-04T10:34:31;101412.22;;;22.94;100.00
8627;BME280;4351;51.422;6.794;2022-09-04T10:37:15;101413.41;;;23.45;100.00
8627;BME280;4351;51.422;6.794;2022-09-04T10:40:03;101413.38;;;23.36;100.00
8627;BME280;4351;51.422;6.794;2022-09-04T10:43:03;101409.41;;;23.39;100.00
8627;BME280;4351;51.422;6.794;2022-09-04T10:45:43;101396.88;;;23.36;100.00
8627;BME280;4351;51.422;6.794;2022-09-04T10:48:40;101406.78;;;23.91;100.00
8627;BME280;4351;51.422;6.794;2022-09-04T10:52:04;101414.25;;;23.72;100.00
8627;BME280;4351;51.422;6.794;2022-09-04T10:55:15;101410.28;;;23.66;100.00
8627;BME280;4351;51.422;6.794;2022-09-04T10:57:58;101410.19;;;23.76;100.00
8627;BME280;4351;51.422;6.794;2022-09-04T11:00:33;101412.56;;;23.71;100.00
8627;BME280;4351;51.422;6.794;2022-09-04T11:03:24;101404.84;;;23.83;100.00
8627;BME280;4351;51.422;6.794;2022-09-04T11:06:34;101410.59;;;24.41;100.00
8627;BME280;4351;51.422;6.794;2022-09-04T11:09:17;101408.41;;;24.10;100.00
8627;BME280;4351;51.422;6.794;2022-09-04T11:15:18;101404.09;;;24.16;100.00
8627;BME280;4351;51.422;6.794;2022-09-04T11:21:47;101407.22;;;24.21;100.00
8627;BME280;4351;51.422;6.794;2022-09-04T11:27:55;101405.84;;;24.17;100.00
8627;BME280;4351;51.422;6.794;2022-09-04T11:30:32;101398.03;;;23.95;100.00
8627;BME280;4351;51.422;6.794;2022-09-04T11:33:38;101401.44;;;24.24;100.00
8627;BME280;4351;51.422;6.794;2022-09-04T11:36:46;101399.47;;;24.16;100.00
8627;BME280;4351;51.422;6.794;2022-09-04T11:39:35;101397.75;;;24.15;100.00
8627;BME280;4351;51.422;6.794;2022-09-04T11:42:41;101403.84;;;24.36;100.00
8627;BME280;4351;51.422;6.794;2022-09-04T11:45:38;101397.53;;;24.77;100.00
8627;BME280;4351;51.422;6.794;2022-09-04T11:48:46;101398.53;;;24.92;100.00
8627;BME280;4351;51.422;6.794;2022-09-04T11:51:56;101398.53;;;24.76;100.00
8627;BME280;4351;51.422;6.794;2022-09-04T11:57:51;101404.16;;;25.49;100.00
8627;BME280;4351;51.422;6.794;2022-09-04T12:00:33;101403.38;;;25.24;100.00
8627;BME280;4351;51.422;6.794;2022-09-04T12:03:44;101412.84;;;25.21;100.00
8627;BME280;4351;51.422;6.794;2022-09-04T12:06:29;101401.09;;;25.28;100.00
8627;BME280;4351;51.422;6.794;2022-09-04T12:09:30;101402.00;;;25.20;100.00
8627;BME280;4351;51.422;6.794;2022-09-04T12:12:24;101403.06;;;25.02;100.00
8627;BME280;4351;51.422;6.794;2022-09-04T12:15:30;101404.72;;;24.95;100.00
8627;BME280;4351;51.422;6.794;2022-09-04T12:18:17;101405.97;;;25.17;100.00
8627;BME280;4351;51.422;6.794;2022-09-04T12:21:12;101407.00;;;25.16;100.00
8627;BME280;4351;51.422;6.794;2022-09-04T12:23:56;101398.75;;;25.16;100.00
8627;BME280;4351;51.422;6.794;2022-09-04T12:26:46;101407.75;;;25.58;100.00
8627;BME280;4351;51.422;6.794;2022-09-04T12:29:47;101403.59;;;25.63;100.00
8627;BME280;4351;51.422;6.794;2022-09-04T12:36:50;101411.59;;;25.49;100.00
8627;BME280;4351;51.422;6.794;2022-09-04T12:39:43;101405.28;;;25.89;100.00
8627;BME280;4351;51.422;6.794;2022-09-04T12:42:23;101411.06;;;26.02;100.00
8627;BME280;4351;51.422;6.794;2022-09-04T12:45:01;101412.06;;;26.10;100.00
8627;BME280;4351;51.422;6.794;2022-09-04T12:47:44;101409.41;;;26.57;100.00
8627;BME280;4351;51.422;6.794;2022-09-04T12:50:31;101410.13;;;26.50;100.00
8627;BME280;4351;51.422;6.794;2022-09-04T12:53:12;101414.25;;;26.55;100.00
8627;BME280;4351;51.422;6.794;2022-09-04T12:55:47;101419.06;;;26.61;100.00
8627;BME280;4351;51.422;6.794;2022-09-04T12:58:26;101410.63;;;26.22;100.00
8627;BME280;4351;51.422;6.794;2022-09-04T13:03:52;101417.06;;;26.46;100.00
8627;BME280;4351;51.422;6.794;2022-09-04T13:06:33;101415.34;;;26.45;100.00
8627;BME280;4351;51.422;6.794;2022-09-04T13:09:12;101405.16;;;26.37;100.00
8627;BME280;4351;51.422;6.794;2022-09-04T13:12:00;101419.59;;;26.80;100.00
8627;BME280;4351;51.422;6.794;2022-09-04T13:14:45;101423.03;;;26.82;100.00
8627;BME280;4351;51.422;6.794;2022-09-04T13:17:25;101427.63;;;26.66;100.00
8627;BME280;4351;51.422;6.794;2022-09-04T13:20:03;101420.22;;;26.67;100.00
8627;BME280;4351;51.422;6.794;2022-09-04T13:22:49;101426.06;;;26.72;100.00
8627;BME280;4351;51.422;6.794;2022-09-04T13:25:39;101417.75;;;26.48;100.00
8627;BME280;4351;51.422;6.794;2022-09-04T13:28:21;101419.91;;;26.85;100.00
8627;BME280;4351;51.422;6.794;2022-09-04T13:31:04;101422.78;;;26.92;100.00
8627;BME280;4351;51.422;6.794;2022-09-04T13:33:42;101414.69;;;26.43;100.00
8627;BME280;4351;51.422;6.794;2022-09-04T13:36:25;101409.78;;;26.92;100.00
8627;BME280;4351;51.422;6.794;2022-09-04T13:39:30;101420.81;;;27.01;100.00
8627;BME280;4351;51.422;6.794;2022-09-04T13:42:17;101426.44;;;27.07;100.00
8627;BME280;4351;51.422;6.794;2022-09-04T13:45:03;101421.03;;;27.14;100.00
8627;BME280;4351;51.422;6.794;2022-09-04T13:47:44;101420.06;;;27.07;100.00
8627;BME280;4351;51.422;6.794;2022-09-04T13:50:20;101418.97;;;26.69;100.00
8627;BME280;4351;51.422;6.794;2022-09-04T13:52:55;101434.41;;;26.87;100.00
8627;BME280;4351;51.422;6.794;2022-09-04T13:55:28;101433.66;;;26.93;100.00
8627;BME280;4351;51.422;6.794;2022-09-04T13:58:00;101431.50;;;27.04;100.00
8627;BME280;4351;51.422;6.794;2022-09-04T14:00:41;101432.59;;;26.94;100.00
8627;BME280;4351;51.422;6.794;2022-09-04T14:03:28;101435.16;;;26.81;100.00
8627;BME280;4351;51.422;6.794;2022-09-04T14:05:58;101437.00;;;26.65;100.00
8627;BME280;4351;51.422;6.794;2022-09-04T14:08:28;101434.88;;;27.14;100.00
8627;BME280;4351;51.422;6.794;2022-09-04T14:11:19;101432.25;;;26.97;100.00
8627;BME280;4351;51.422;6.794;2022-09-04T14:14:10;101435.28;;;27.11;100.00
8627;BME280;4351;51.422;6.794;2022-09-04T14:16:46;101424.97;;;26.96;100.00
8627;BME280;4351;51.422;6.794;2022-09-04T14:19:24;101438.81;;;26.96;100.00
8627;BME280;4351;51.422;6.794;2022-09-04T14:22:15;101432.63;;;26.71;100.00
8627;BME280;4351;51.422;6.794;2022-09-04T14:24:58;101427.28;;;26.69;100.00
8627;BME280;4351;51.422;6.794;2022-09-04T14:27:40;101426.00;;;26.57;100.00
8627;BME280;4351;51.422;6.794;2022-09-04T14:30:14;101435.50;;;26.78;100.00
8627;BME280;4351;51.422;6.794;2022-09-04T14:32:52;101429.44;;;26.59;100.00
8627;BME280;4351;51.422;6.794;2022-09-04T14:35:31;101426.72;;;26.50;100.00
8627;BME280;4351;51.422;6.794;2022-09-04T14:38:17;101432.63;;;26.47;100.00
8627;BME280;4351;51.422;6.794;2022-09-04T14:40:56;101426.22;;;26.47;100.00
8627;BME280;4351;51.422;6.794;2022-09-04T14:43:36;101417.47;;;26.35;100.00
8627;BME280;4351;51.422;6.794;2022-09-04T14:46:18;101420.22;;;26.43;100.00
8627;BME280;4351;51.422;6.794;2022-09-04T14:48:48;101423.16;;;26.33;100.00
8627;BME280;4351;51.422;6.794;2022-09-04T14:51:33;101420.34;;;26.50;100.00
8627;BME280;4351;51.422;6.794;2022-09-04T14:54:03;101420.81;;;26.77;100.00
8627;BME280;4351;51.422;6.794;2022-09-04T14:56:35;101432.47;;;26.88;100.00
8627;BME280;4351;51.422;6.794;2022-09-04T14:59:12;101431.41;;;26.73;100.00
8627;BME280;4351;51.422;6.794;2022-09-04T15:02:00;101426.97;;;26.64;100.00
8627;BME280;4351;51.422;6.794;2022-09-04T15:04:37;101429.59;;;26.57;100.00
8627;BME280;4351;51.422;6.794;2022-09-04T15:07:24;101423.84;;;26.44;100.00
8627;BME280;4351;51.422;6.794;2022-09-04T15:10:13;101423.66;;;26.45;100.00
8627;BME280;4351;51.422;6.794;2022-09-04T15:12:50;101421.19;;;26.50;100.00
8627;BME280;4351;51.422;6.794;2022-09-04T15:15:22;101423.53;;;26.62;100.00
8627;BME280;4351;51.422;6.794;2022-09-04T15:18:02;101423.47;;;26.47;100.00
8627;BME280;4351;51.422;6.794;2022-09-04T15:20:39;101421.19;;;26.50;100.00
8627;BME280;4351;51.422;6.794;2022-09-04T15:23:21;101418.47;;;26.42;100.00
8627;BME280;4351;51.422;6.794;2022-09-04T15:25:54;101416.41;;;26.36;100.00
8627;BME280;4351;51.422;6.794;2022-09-04T15:28:33;101417.94;;;26.15;100.00
8627;BME280;4351;51.422;6.794;2022-09-04T15:31:09;101414.72;;;26.26;100.00
8627;BME280;4351;51.422;6.794;2022-09-04T15:33:44;101408.13;;;26.36;100.00
8627;BME280;4351;51.422;6.794;2022-09-04T15:36:15;101404.13;;;26.06;100.00
8627;BME280;4351;51.422;6.794;2022-09-04T15:38:50;101405.19;;;26.05;100.00
8627;BME280;4351;51.422;6.794;2022-09-04T15:41:26;101409.31;;;26.10;100.00
8627;BME280;4351;51.422;6.794;2022-09-04T15:44:13;101406.16;;;26.21;100.00